createdAt,value
2023-04-29T00:00:54.820Z,6.49
2023-04-29T00:03:23.085Z,6.49
2023-04-29T00:05:51.941Z,6.49
2023-04-29T00:08:21.350Z,6.49
2023-04-29T00:10:50.042Z,6.50
2023-04-29T00:13:18.834Z,6.50
2023-04-29T00:15:47.016Z,6.51
2023-04-29T00:18:15.193Z,6.52
2023-04-29T00:20:43.769Z,6.52
2023-04-29T00:23:12.164Z,6.52
2023-04-29T00:25:40.131Z,6.52
2023-04-29T00:28:08.209Z,6.53
2023-04-29T00:30:36.698Z,6.53
2023-04-29T00:33:04.844Z,6.53
2023-04-29T00:35:32.955Z,6.52
2023-04-29T00:38:00.917Z,6.53
2023-04-29T00:40:29.161Z,6.53
2023-04-29T00:42:57.485Z,6.52
2023-04-29T00:45:25.770Z,6.52
2023-04-29T00:47:53.957Z,6.52
2023-04-29T00:50:22.679Z,6.51
2023-04-29T00:52:52.580Z,6.50
2023-04-29T00:55:21.039Z,6.50
2023-04-29T00:57:52.534Z,6.49
2023-04-29T01:00:20.870Z,6.49
2023-04-29T01:02:50.144Z,6.49
2023-04-29T01:05:18.486Z,6.48
2023-04-29T01:07:46.953Z,6.49
2023-04-29T01:10:17.068Z,6.47
2023-04-29T01:12:49.546Z,6.47
2023-04-29T01:15:22.969Z,6.46
2023-04-29T01:17:56.156Z,6.47
2023-04-29T01:20:24.747Z,6.47
2023-04-29T01:22:53.448Z,6.47
2023-04-29T01:25:21.912Z,6.46
2023-04-29T01:28:22.515Z,6.46
2023-04-29T01:31:01.574Z,6.46
2023-04-29T01:33:42.219Z,6.47
2023-04-29T01:36:22.875Z,6.46
2023-04-29T01:39:00.672Z,6.45
2023-04-29T01:41:36.320Z,6.43
2023-04-29T01:44:19.030Z,6.42
2023-04-29T01:46:50.635Z,6.42
2023-04-29T01:49:29.096Z,6.42
2023-04-29T01:51:57.480Z,6.40
2023-04-29T01:54:26.078Z,6.39
2023-04-29T01:56:55.275Z,6.38
2023-04-29T01:59:49.885Z,6.35
2023-04-29T02:02:37.047Z,6.34
2023-04-29T02:05:43.834Z,6.32
2023-04-29T02:08:11.904Z,6.29
2023-04-29T02:10:51.748Z,6.24
2023-04-29T02:13:39.701Z,6.21
2023-04-29T02:16:11.388Z,6.18
2023-04-29T02:18:43.299Z,6.16
2023-04-29T02:21:12.418Z,6.15
2023-04-29T02:23:41.102Z,6.12
2023-04-29T02:26:09.906Z,6.10
2023-04-29T02:28:37.970Z,6.09
2023-04-29T02:31:06.346Z,6.07
2023-04-29T02:33:34.513Z,6.04
2023-04-29T02:36:02.721Z,6.01
2023-04-29T02:38:31.299Z,5.99
2023-04-29T02:40:59.696Z,5.97
2023-04-29T02:43:31.170Z,5.96
2023-04-29T02:46:00.632Z,5.94
2023-04-29T02:48:29.134Z,5.93
2023-04-29T02:50:57.393Z,5.92
2023-04-29T02:53:25.496Z,5.90
2023-04-29T02:55:53.460Z,5.90
2023-04-29T02:58:21.741Z,5.89
2023-04-29T03:00:50.121Z,5.89
2023-04-29T03:03:18.391Z,5.89
2023-04-29T03:05:46.786Z,5.87
2023-04-29T03:08:15.480Z,5.84
2023-04-29T03:10:43.859Z,5.80
2023-04-29T03:13:12.144Z,5.77
2023-04-29T03:15:41.448Z,5.74
2023-04-29T03:18:09.930Z,5.73
2023-04-29T03:20:38.413Z,5.72
2023-04-29T03:23:06.384Z,5.70
2023-04-29T03:25:34.752Z,5.69
2023-04-29T03:28:03.454Z,5.68
2023-04-29T03:30:31.934Z,5.67
2023-04-29T03:33:00.850Z,5.68
2023-04-29T03:35:29.636Z,5.67
2023-04-29T03:38:16.137Z,5.65
2023-04-29T03:40:45.842Z,5.65
2023-04-29T03:43:14.333Z,5.65
2023-04-29T03:45:42.814Z,5.62
2023-04-29T03:48:12.654Z,5.57
2023-04-29T03:50:41.734Z,5.52
2023-04-29T03:53:10.416Z,5.51
2023-04-29T03:55:38.604Z,5.50
2023-04-29T03:58:07.183Z,5.50
2023-04-29T04:00:35.780Z,5.50
2023-04-29T04:03:05.844Z,5.50
2023-04-29T04:05:35.710Z,5.50
2023-04-29T04:08:09.719Z,5.50
2023-04-29T04:10:38.316Z,5.50
2023-04-29T04:13:14.563Z,5.51
2023-04-29T04:15:49.395Z,5.52
2023-04-29T04:18:17.932Z,5.53
2023-04-29T04:20:46.171Z,5.55
2023-04-29T04:23:14.766Z,5.56
2023-04-29T04:25:48.256Z,5.57
2023-04-29T04:28:54.809Z,5.58
2023-04-29T04:31:37.167Z,5.60
2023-04-29T04:34:05.302Z,5.61
2023-04-29T04:36:33.979Z,5.62
2023-04-29T04:39:02.175Z,5.64
2023-04-29T04:41:32.197Z,5.66
2023-04-29T04:44:00.667Z,5.68
2023-04-29T04:46:40.272Z,5.69
2023-04-29T04:49:17.387Z,5.72
2023-04-29T04:51:52.021Z,5.74
2023-04-29T04:54:20.190Z,5.75
2023-04-29T04:56:52.477Z,5.77
2023-04-29T04:59:21.530Z,5.79
2023-04-29T05:01:49.750Z,5.81
2023-04-29T05:04:17.972Z,5.83
2023-04-29T05:06:47.040Z,5.84
2023-04-29T05:09:16.530Z,5.86
2023-04-29T05:11:46.666Z,5.88
2023-04-29T05:14:18.317Z,5.90
2023-04-29T05:16:47.063Z,5.92
2023-04-29T05:19:16.008Z,5.93
2023-04-29T05:21:44.185Z,5.95
2023-04-29T05:24:12.772Z,5.97
2023-04-29T05:26:41.252Z,6.00
2023-04-29T05:29:09.331Z,6.01
2023-04-29T05:31:45.702Z,6.04
2023-04-29T05:34:13.780Z,6.06
2023-04-29T05:36:42.569Z,6.09
2023-04-29T05:39:10.620Z,6.11
2023-04-29T05:41:38.726Z,6.13
2023-04-29T05:44:23.497Z,6.17
2023-04-29T05:46:52.171Z,6.20
2023-04-29T05:49:20.466Z,6.25
2023-04-29T05:51:48.722Z,6.29
2023-04-29T05:54:16.986Z,6.34
2023-04-29T05:56:46.832Z,6.38
2023-04-29T05:59:15.221Z,6.42
2023-04-29T06:01:46.862Z,6.47
2023-04-29T06:04:15.689Z,6.52
2023-04-29T06:07:09.133Z,6.56
2023-04-29T06:10:00.751Z,6.62
2023-04-29T06:12:31.153Z,6.67
2023-04-29T06:15:00.179Z,6.72
2023-04-29T06:17:31.266Z,6.77
2023-04-29T06:19:59.688Z,6.83
2023-04-29T06:22:27.870Z,6.88
2023-04-29T06:24:57.071Z,6.94
2023-04-29T06:27:38.246Z,7.00
2023-04-29T06:30:06.943Z,7.06
2023-04-29T06:32:35.492Z,7.13
2023-04-29T06:35:04.122Z,7.20
2023-04-29T06:37:51.330Z,7.28
2023-04-29T06:40:39.768Z,7.39
2023-04-29T06:43:39.989Z,7.48
2023-04-29T06:46:29.294Z,7.57
2023-04-29T06:49:10.181Z,7.66
2023-04-29T06:51:38.283Z,7.72
2023-04-29T06:54:06.669Z,7.78
2023-04-29T06:56:34.957Z,7.84
2023-04-29T06:59:04.591Z,7.87
2023-04-29T07:01:32.676Z,7.92
2023-04-29T07:04:01.038Z,7.97
2023-04-29T07:06:29.629Z,8.02
2023-04-29T07:08:57.610Z,8.08
2023-04-29T07:11:27.416Z,8.13
2023-04-29T07:13:55.490Z,8.19
2023-04-29T07:16:26.596Z,8.23
2023-04-29T07:18:54.905Z,8.29
2023-04-29T07:21:23.003Z,8.35
2023-04-29T07:23:51.381Z,8.38
2023-04-29T07:26:19.747Z,8.45
2023-04-29T07:28:48.444Z,8.49
2023-04-29T07:31:16.900Z,8.55
2023-04-29T07:33:48.994Z,8.60
2023-04-29T07:36:17.744Z,8.66
2023-04-29T07:38:45.663Z,8.70
2023-04-29T07:41:16.387Z,8.76
2023-04-29T07:43:45.186Z,8.81
2023-04-29T07:46:13.286Z,8.85
2023-04-29T07:48:41.453Z,8.91
2023-04-29T07:51:15.554Z,8.96
2023-04-29T07:53:44.847Z,9.02
2023-04-29T07:56:12.935Z,9.07
2023-04-29T07:58:43.113Z,9.13
2023-04-29T08:01:12.485Z,9.18
2023-04-29T08:03:42.282Z,9.23
2023-04-29T08:06:11.945Z,9.29
2023-04-29T08:08:43.139Z,9.34
2023-04-29T08:11:22.471Z,9.40
2023-04-29T08:13:51.059Z,9.45
2023-04-29T08:16:19.245Z,9.51
2023-04-29T08:18:47.637Z,9.56
2023-04-29T08:21:16.625Z,9.63
2023-04-29T08:23:44.600Z,9.68
2023-04-29T08:26:15.653Z,9.74
2023-04-29T08:28:43.713Z,9.82
2023-04-29T08:31:18.608Z,9.88
2023-04-29T08:33:47.135Z,9.96
2023-04-29T08:36:15.498Z,10.02
2023-04-29T08:38:43.506Z,10.10
2023-04-29T08:41:11.971Z,10.16
2023-04-29T08:43:41.114Z,10.25
2023-04-29T08:46:10.047Z,10.31
2023-04-29T08:48:44.182Z,10.37
2023-04-29T08:51:15.338Z,10.44
2023-04-29T08:53:43.426Z,10.51
2023-04-29T08:56:23.361Z,10.58
2023-04-29T08:58:54.781Z,10.65
2023-04-29T09:01:23.287Z,10.72
2023-04-29T09:03:57.229Z,10.78
2023-04-29T09:06:25.287Z,10.84
2023-04-29T09:08:53.258Z,10.91
2023-04-29T09:11:21.448Z,10.97
2023-04-29T09:13:49.307Z,11.03
2023-04-29T09:16:17.292Z,11.10
2023-04-29T09:18:53.548Z,11.16
2023-04-29T09:21:32.476Z,11.22
2023-04-29T09:24:01.477Z,11.29
2023-04-29T09:26:55.647Z,11.35
2023-04-29T09:29:24.194Z,11.42
2023-04-29T09:31:57.806Z,11.48
2023-04-29T09:34:42.781Z,11.54
2023-04-29T09:37:30.206Z,11.60
2023-04-29T09:39:58.397Z,11.67
2023-04-29T09:42:26.468Z,11.72
2023-04-29T09:44:54.843Z,11.78
2023-04-29T09:47:34.161Z,11.83
2023-04-29T09:50:14.046Z,11.88
2023-04-29T09:52:42.621Z,11.95
2023-04-29T09:55:11.607Z,12.03
2023-04-29T09:57:44.274Z,12.12
2023-04-29T10:00:14.739Z,12.21
2023-04-29T10:02:43.618Z,12.28
2023-04-29T10:05:12.258Z,12.36
2023-04-29T10:07:41.513Z,12.44
2023-04-29T10:10:11.468Z,12.54
2023-04-29T10:12:40.329Z,12.62
2023-04-29T10:15:20.797Z,12.70
2023-04-29T10:18:07.549Z,12.77
2023-04-29T10:20:37.917Z,12.84
2023-04-29T10:23:06.502Z,12.89
2023-04-29T10:25:36.281Z,12.95
2023-04-29T10:28:05.630Z,13.02
2023-04-29T10:30:34.103Z,13.08
2023-04-29T10:33:03.681Z,13.14
2023-04-29T10:35:32.514Z,13.20
2023-04-29T10:38:04.064Z,13.25
2023-04-29T10:40:36.901Z,13.29
2023-04-29T10:43:05.438Z,13.33
2023-04-29T10:45:36.464Z,13.35
2023-04-29T10:48:10.859Z,13.39
2023-04-29T10:50:48.306Z,13.42
2023-04-29T10:53:17.284Z,13.45
2023-04-29T10:55:49.362Z,13.49
2023-04-29T10:58:36.361Z,13.52
2023-04-29T11:01:05.132Z,13.55
2023-04-29T11:03:45.586Z,13.58
2023-04-29T11:06:14.300Z,13.62
2023-04-29T11:08:43.495Z,13.65
2023-04-29T11:11:13.648Z,13.70
2023-04-29T11:13:46.023Z,13.75
2023-04-29T11:16:14.465Z,13.82
2023-04-29T11:19:01.432Z,13.88
2023-04-29T11:21:29.382Z,13.95
2023-04-29T11:23:57.970Z,14.04
2023-04-29T11:26:25.964Z,14.12
2023-04-29T11:28:54.227Z,14.18
2023-04-29T11:31:28.763Z,14.25
2023-04-29T11:33:56.921Z,14.31
2023-04-29T11:36:25.109Z,14.36
2023-04-29T11:38:53.293Z,14.42
2023-04-29T11:41:22.597Z,14.49
2023-04-29T11:43:57.912Z,14.54
2023-04-29T11:46:28.289Z,14.58
2023-04-29T11:48:57.670Z,14.62
2023-04-29T11:51:26.050Z,14.67
2023-04-29T11:53:54.224Z,14.72
2023-04-29T11:56:26.000Z,14.76
2023-04-29T11:58:55.884Z,14.80
2023-04-29T12:01:25.311Z,14.84
2023-04-29T12:03:58.576Z,14.89
2023-04-29T12:06:30.479Z,14.93
2023-04-29T12:08:59.277Z,14.97
2023-04-29T12:11:28.374Z,15.00
2023-04-29T12:13:57.059Z,15.04
2023-04-29T12:16:28.273Z,15.07
2023-04-29T12:18:58.787Z,15.11
2023-04-29T12:21:27.734Z,15.14
2023-04-29T12:23:58.782Z,15.15
2023-04-29T12:26:28.188Z,15.17
2023-04-29T12:28:57.900Z,15.19
2023-04-29T12:31:33.190Z,15.22
2023-04-29T12:34:03.606Z,15.23
2023-04-29T12:36:33.078Z,15.24
2023-04-29T12:39:01.456Z,15.25
2023-04-29T12:41:42.342Z,15.25
2023-04-29T12:44:11.174Z,15.26
2023-04-29T12:46:40.213Z,15.28
2023-04-29T12:49:08.500Z,15.28
2023-04-29T12:51:37.095Z,15.29
2023-04-29T12:54:07.448Z,15.30
2023-04-29T12:56:35.431Z,15.31
2023-04-29T12:59:10.328Z,15.32
2023-04-29T13:01:39.269Z,15.33
2023-04-29T13:04:09.320Z,15.33
2023-04-29T13:06:42.030Z,15.35
2023-04-29T13:09:17.945Z,15.37
2023-04-29T13:11:47.397Z,15.38
2023-04-29T13:14:15.703Z,15.41
2023-04-29T13:16:44.345Z,15.42
2023-04-29T13:19:24.678Z,15.43
2023-04-29T13:22:00.981Z,15.44
2023-04-29T13:24:28.959Z,15.45
2023-04-29T13:26:58.486Z,15.46
2023-04-29T13:29:26.963Z,15.46
2023-04-29T13:31:54.901Z,15.47
2023-04-29T13:34:23.323Z,15.47
2023-04-29T13:36:51.388Z,15.48
2023-04-29T13:39:22.937Z,15.49
2023-04-29T13:41:51.620Z,15.48
2023-04-29T13:44:29.442Z,15.48
2023-04-29T13:47:06.383Z,15.49
2023-04-29T13:50:10.047Z,15.49
2023-04-29T13:58:16.796Z,15.49
2023-04-29T14:00:38.310Z,15.49
2023-04-29T14:03:04.324Z,15.48
2023-04-29T14:05:32.577Z,15.51
2023-04-29T14:08:00.810Z,15.52
2023-04-29T14:10:29.308Z,15.54
2023-04-29T14:12:57.182Z,15.56
2023-04-29T14:15:25.572Z,15.57
2023-04-29T14:17:55.332Z,15.57
2023-04-29T14:20:23.359Z,15.57
2023-04-29T14:22:51.420Z,15.58
2023-04-29T14:25:19.501Z,15.60
2023-04-29T14:27:49.346Z,15.60
2023-04-29T14:30:17.421Z,15.60
2023-04-29T14:32:46.551Z,15.60
2023-04-29T14:35:15.393Z,15.59
2023-04-29T14:37:43.306Z,15.57
2023-04-29T14:40:11.648Z,15.57
2023-04-29T14:42:39.719Z,15.56
2023-04-29T14:45:08.211Z,15.56
2023-04-29T14:47:36.057Z,15.55
2023-04-29T14:50:05.027Z,15.54
2023-04-29T14:52:33.158Z,15.53
2023-04-29T14:55:01.120Z,15.52
2023-04-29T14:57:30.141Z,15.50
2023-04-29T14:59:58.204Z,15.50
2023-04-29T15:02:26.990Z,15.49
2023-04-29T15:04:55.489Z,15.49
2023-04-29T15:07:24.173Z,15.48
2023-04-29T15:09:52.147Z,15.48
2023-04-29T15:12:21.265Z,15.48
2023-04-29T15:14:49.423Z,15.49
2023-04-29T15:17:17.300Z,15.49
2023-04-29T15:19:45.325Z,15.50
2023-04-29T15:22:13.459Z,15.50
2023-04-29T15:24:41.631Z,15.50
2023-04-29T15:27:09.707Z,15.51
2023-04-29T15:29:38.761Z,15.52
2023-04-29T15:32:07.030Z,15.52
2023-04-29T15:34:35.166Z,15.53
2023-04-29T15:37:03.245Z,15.53
2023-04-29T15:39:31.125Z,15.54
2023-04-29T15:41:59.304Z,15.55
2023-04-29T15:44:27.163Z,15.55
2023-04-29T15:46:55.573Z,15.57
2023-04-29T15:49:24.740Z,15.58
2023-04-29T15:51:52.931Z,15.59
2023-04-29T15:54:21.628Z,15.62
2023-04-29T15:56:49.902Z,15.62
2023-04-29T15:59:17.897Z,15.65
2023-04-29T16:01:46.006Z,15.69
2023-04-29T16:04:14.297Z,15.75
2023-04-29T16:06:42.825Z,15.80
2023-04-29T16:09:12.186Z,15.87
2023-04-29T16:11:40.407Z,15.95
2023-04-29T16:14:08.538Z,16.03
2023-04-29T16:16:36.575Z,16.12
2023-04-29T16:19:04.947Z,16.20
2023-04-29T16:21:34.762Z,16.27
2023-04-29T16:24:02.842Z,16.34
2023-04-29T16:26:32.062Z,16.41
2023-04-29T16:29:00.019Z,16.47
2023-04-29T16:31:29.036Z,16.53
2023-04-29T16:33:57.603Z,16.59
2023-04-29T16:36:26.505Z,16.63
2023-04-29T16:38:58.095Z,16.66
2023-04-29T16:41:26.348Z,16.68
2023-04-29T16:43:54.416Z,16.68
2023-04-29T16:46:22.710Z,16.68
2023-04-29T16:48:52.210Z,16.66
2023-04-29T16:51:20.218Z,16.62
2023-04-29T16:53:48.159Z,16.57
2023-04-29T16:56:16.438Z,16.50
2023-04-29T16:58:44.420Z,16.43
2023-04-29T17:01:12.535Z,16.35
2023-04-29T17:03:41.279Z,16.27
2023-04-29T17:06:09.425Z,16.18
2023-04-29T17:08:37.647Z,16.08
2023-04-29T17:11:05.735Z,15.99
2023-04-29T17:13:33.686Z,15.88
2023-04-29T17:16:01.896Z,15.78
2023-04-29T17:18:29.940Z,15.68
2023-04-29T17:20:58.358Z,15.57
2023-04-29T17:23:26.279Z,15.42
2023-04-29T17:25:55.633Z,15.30
2023-04-29T17:28:23.687Z,15.18
2023-04-29T17:30:53.561Z,15.07
2023-04-29T17:33:22.392Z,14.95
2023-04-29T17:35:50.582Z,14.85
2023-04-29T17:38:18.467Z,14.74
2023-04-29T17:40:46.926Z,14.62
2023-04-29T17:43:15.213Z,14.50
2023-04-29T17:45:43.326Z,14.38
2023-04-29T17:48:12.189Z,14.26
2023-04-29T17:50:40.162Z,14.17
2023-04-29T17:53:08.230Z,14.04
2023-04-29T17:55:38.667Z,13.93
2023-04-29T17:58:07.230Z,13.82
2023-04-29T18:00:35.340Z,13.69
2023-04-29T18:03:03.840Z,13.56
2023-04-29T18:05:31.802Z,13.45
2023-04-29T18:07:59.968Z,13.35
2023-04-29T18:10:27.910Z,13.23
2023-04-29T18:12:56.231Z,13.13
2023-04-29T18:15:24.303Z,13.04
2023-04-29T18:17:54.504Z,12.94
2023-04-29T18:20:22.814Z,12.83
2023-04-29T18:22:50.890Z,12.71
2023-04-29T18:25:18.856Z,12.60
2023-04-29T18:27:46.930Z,12.48
2023-04-29T18:30:15.014Z,12.35
2023-04-29T18:32:43.225Z,12.21
2023-04-29T18:35:11.362Z,12.10
2023-04-29T18:37:39.652Z,12.01
2023-04-29T18:40:09.878Z,11.90
2023-04-29T18:42:38.047Z,11.79
2023-04-29T18:45:07.046Z,11.71
2023-04-29T18:47:34.969Z,11.64
2023-04-29T18:50:04.123Z,11.59
2023-04-29T18:52:32.306Z,11.53
2023-04-29T18:55:00.272Z,11.46
2023-04-29T18:57:28.253Z,11.40
2023-04-29T18:59:56.896Z,11.31
2023-04-29T19:02:25.342Z,11.21
2023-04-29T19:04:53.453Z,11.11
2023-04-29T19:07:21.789Z,11.02
2023-04-29T19:09:49.758Z,10.96
2023-04-29T19:12:17.939Z,10.88
2023-04-29T19:14:45.834Z,10.80
2023-04-29T19:17:14.199Z,10.70
2023-04-29T19:19:42.470Z,10.61
2023-04-29T19:22:10.776Z,10.55
2023-04-29T19:24:39.652Z,10.48
2023-04-29T19:27:08.143Z,10.42
2023-04-29T19:29:37.030Z,10.34
2023-04-29T19:32:04.915Z,10.27
2023-04-29T19:34:32.771Z,10.21
2023-04-29T19:37:01.373Z,10.11
2023-04-29T19:39:29.640Z,10.01
2023-04-29T19:41:58.333Z,9.91
2023-04-29T19:44:26.327Z,9.80
2023-04-29T19:46:54.321Z,9.71
2023-04-29T19:49:22.375Z,9.62
2023-04-29T19:51:51.870Z,9.55
2023-04-29T19:54:19.842Z,9.48
2023-04-29T19:56:47.840Z,9.40
2023-04-29T19:59:16.002Z,9.34
2023-04-29T20:01:44.402Z,9.27
2023-04-29T20:04:12.907Z,9.19
2023-04-29T20:06:41.471Z,9.12
2023-04-29T20:09:09.843Z,9.05
2023-04-29T20:11:38.380Z,8.97
2023-04-29T20:14:06.610Z,8.90
2023-04-29T20:16:35.750Z,8.81
2023-04-29T20:19:04.088Z,8.73
2023-04-29T20:21:32.877Z,8.65
2023-04-29T20:24:01.030Z,8.59
2023-04-29T20:26:29.028Z,8.53
2023-04-29T20:28:57.006Z,8.48
2023-04-29T20:31:25.027Z,8.43
2023-04-29T20:33:53.974Z,8.34
2023-04-29T20:36:23.494Z,8.28
2023-04-29T20:38:52.326Z,8.21
2023-04-29T20:41:20.974Z,8.14
2023-04-29T20:43:49.450Z,8.09
2023-04-29T20:46:18.001Z,8.04
2023-04-29T20:48:46.223Z,8.00
2023-04-29T20:51:14.304Z,7.95
2023-04-29T20:53:42.445Z,7.89
2023-04-29T20:56:11.271Z,7.83
2023-04-29T20:58:39.359Z,7.78
2023-04-29T21:01:07.869Z,7.73
2023-04-29T21:03:36.217Z,7.70
2023-04-29T21:06:04.326Z,7.65
2023-04-29T21:08:32.477Z,7.61
2023-04-29T21:11:00.760Z,7.58
2023-04-29T21:13:28.848Z,7.55
2023-04-29T21:15:56.945Z,7.51
2023-04-29T21:18:25.122Z,7.47
2023-04-29T21:20:53.576Z,7.43
2023-04-29T21:23:22.893Z,7.38
2023-04-29T21:25:50.857Z,7.32
2023-04-29T21:28:18.849Z,7.24
2023-04-29T21:30:46.907Z,7.18
2023-04-29T21:33:14.776Z,7.12
2023-04-29T21:35:43.360Z,7.07
2023-04-29T21:38:11.400Z,7.04
2023-04-29T21:40:40.887Z,7.02
2023-04-29T21:43:10.046Z,7.01
2023-04-29T21:45:38.653Z,6.98
2023-04-29T21:48:16.741Z,6.95
2023-04-29T21:50:45.137Z,6.91
2023-04-29T21:53:15.838Z,6.86
2023-04-29T21:55:44.663Z,6.80
2023-04-29T21:58:13.026Z,6.77
2023-04-29T22:00:48.072Z,6.74
2023-04-29T22:03:16.728Z,6.71
2023-04-29T22:05:44.700Z,6.66
2023-04-29T22:08:13.116Z,6.59
2023-04-29T22:10:41.828Z,6.54
2023-04-29T22:13:10.418Z,6.50
2023-04-29T22:15:38.885Z,6.46
2023-04-29T22:18:07.119Z,6.41
2023-04-29T22:20:35.241Z,6.38
2023-04-29T22:23:03.373Z,6.34
2023-04-29T22:25:31.402Z,6.30
2023-04-29T22:27:59.462Z,6.26
2023-04-29T22:30:27.438Z,6.22
2023-04-29T22:32:55.641Z,6.18
2023-04-29T22:35:24.109Z,6.13
2023-04-29T22:37:52.311Z,6.08
2023-04-29T22:40:20.467Z,6.04
2023-04-29T22:42:48.447Z,5.99
2023-04-29T22:45:17.538Z,5.94
2023-04-29T22:47:45.556Z,5.90
2023-04-29T22:50:14.108Z,5.85
2023-04-29T22:52:42.361Z,5.81
2023-04-29T22:55:10.762Z,5.77
2023-04-29T22:57:38.732Z,5.75
2023-04-29T23:00:07.530Z,5.71
2023-04-29T23:02:35.636Z,5.65
2023-04-29T23:05:04.374Z,5.62
2023-04-29T23:07:32.790Z,5.58
2023-04-29T23:10:00.857Z,5.55
2023-04-29T23:12:30.538Z,5.50
2023-04-29T23:14:58.568Z,5.47
2023-04-29T23:17:26.690Z,5.43
2023-04-29T23:19:55.336Z,5.41
2023-04-29T23:22:23.717Z,5.39
2023-04-29T23:24:51.977Z,5.36
2023-04-29T23:27:19.959Z,5.35
2023-04-29T23:29:48.236Z,5.31
2023-04-29T23:32:16.416Z,5.28
2023-04-29T23:34:44.583Z,5.24
2023-04-29T23:37:12.776Z,5.22
2023-04-29T23:39:40.942Z,5.20
2023-04-29T23:42:11.477Z,5.17
2023-04-29T23:44:40.079Z,5.14
2023-04-29T23:47:08.136Z,5.10
2023-04-29T23:49:36.316Z,5.08
2023-04-29T23:52:05.879Z,5.06
2023-04-29T23:54:34.315Z,5.03
2023-04-29T23:57:02.810Z,4.99
2023-04-29T23:59:30.982Z,4.95
